createdAt,value
2023-01-21T07:40:18.051Z,-2.82
2023-01-21T07:41:18.017Z,-2.82
2023-01-21T07:42:18.013Z,-2.82
2023-01-21T07:43:17.999Z,-2.86
2023-01-21T07:44:17.986Z,-2.92
2023-01-21T07:45:18.367Z,-2.94
2023-01-21T07:46:17.962Z,-2.92
2023-01-21T07:47:17.958Z,-2.87
2023-01-21T07:48:17.930Z,-2.90
2023-01-21T07:49:17.919Z,-2.87
2023-01-21T07:50:17.915Z,-2.89
2023-01-21T07:51:17.950Z,-2.82
2023-01-21T07:52:17.899Z,-2.90
2023-01-21T07:53:17.888Z,-2.85
2023-01-21T07:54:17.871Z,-2.93
2023-01-21T07:55:18.089Z,-2.92
2023-01-21T07:56:17.860Z,-2.78
2023-01-21T07:57:17.859Z,-2.85
2023-01-21T07:58:17.822Z,-2.74
2023-01-21T07:59:17.813Z,-2.63
2023-01-21T08:00:17.819Z,-2.53
2023-01-21T08:01:17.887Z,-2.53
2023-01-21T08:02:17.909Z,-2.48
2023-01-21T08:03:17.763Z,-2.43
2023-01-21T08:04:17.763Z,-2.17
2023-01-21T08:05:18.091Z,-2.26
2023-01-21T08:06:17.729Z,-2.03
2023-01-21T08:07:17.748Z,-1.93
2023-01-21T08:08:17.720Z,-1.85
2023-01-21T08:09:17.703Z,-1.62
2023-01-21T08:10:17.683Z,-1.63
2023-01-21T08:11:17.699Z,-1.51
2023-01-21T08:12:17.699Z,-1.39
2023-01-21T08:13:17.653Z,-1.38
2023-01-21T08:14:17.636Z,-1.45
2023-01-21T08:15:18.030Z,-1.15
2023-01-21T08:16:17.663Z,-1.27
2023-01-21T08:17:17.621Z,-1.05
2023-01-21T08:18:17.596Z,-1.09
2023-01-21T08:19:17.599Z,-1.02
2023-01-21T08:20:17.570Z,-0.97
2023-01-21T08:21:17.561Z,-0.95
2023-01-21T08:22:17.591Z,-0.94
2023-01-21T08:23:17.565Z,-0.83
2023-01-21T08:24:17.528Z,-0.97
2023-01-21T08:25:17.915Z,-0.91
2023-01-21T08:26:17.516Z,-0.80
2023-01-21T08:27:17.529Z,-0.78
2023-01-21T08:28:17.520Z,-0.81
2023-01-21T08:29:17.485Z,-0.81
2023-01-21T08:30:17.460Z,-0.70
2023-01-21T08:31:17.558Z,-0.72
2023-01-21T08:32:17.449Z,-0.68
2023-01-21T08:33:17.443Z,-0.69
2023-01-21T08:34:17.424Z,-0.60
2023-01-21T08:35:17.664Z,-0.65
2023-01-21T08:36:17.391Z,-0.65
2023-01-21T08:37:17.394Z,-0.68
2023-01-21T08:38:17.382Z,-0.57
2023-01-21T08:39:17.379Z,-0.51
2023-01-21T08:40:17.357Z,-0.57
2023-01-21T08:41:17.338Z,-0.52
2023-01-21T08:42:17.341Z,-0.54
2023-01-21T08:43:17.329Z,-0.37
2023-01-21T08:44:17.356Z,-0.47
2023-01-21T08:45:17.681Z,-0.45
2023-01-21T08:46:17.292Z,-0.45
2023-01-21T08:47:17.308Z,-0.44
2023-01-21T08:48:17.268Z,-0.44
2023-01-21T08:49:17.308Z,-0.39
2023-01-21T08:50:17.257Z,-0.34
2023-01-21T08:51:17.277Z,-0.27
2023-01-21T08:52:17.225Z,-0.42
2023-01-21T08:53:17.224Z,-0.27
2023-01-21T08:54:17.194Z,-0.31
2023-01-21T08:55:17.465Z,-0.26
2023-01-21T08:56:17.179Z,-0.13
2023-01-21T08:57:17.200Z,-0.27
2023-01-21T08:58:17.163Z,-0.26
2023-01-21T08:59:17.131Z,-0.24
2023-01-21T09:00:17.165Z,-0.18
2023-01-21T09:01:17.173Z,-0.15
2023-01-21T09:02:17.185Z,-0.06
2023-01-21T09:03:17.129Z,-0.11
2023-01-21T09:04:17.097Z,-0.11
2023-01-21T09:05:17.383Z,-0.09
2023-01-21T09:06:17.073Z,-0.08
2023-01-21T09:07:17.053Z,0.02
2023-01-21T09:08:17.046Z,-0.09
2023-01-21T09:09:17.033Z,-0.13
2023-01-21T09:10:17.027Z,0.02
2023-01-21T09:11:17.022Z,0.02
2023-01-21T09:12:17.034Z,-0.01
2023-01-21T09:13:16.990Z,0.06
2023-01-21T09:14:16.981Z,0.09
2023-01-21T09:15:17.271Z,0.07
2023-01-21T09:16:17.034Z,0.10
2023-01-21T09:17:16.962Z,0.21
2023-01-21T09:18:16.923Z,0.20
2023-01-21T09:19:16.929Z,0.27
2023-01-21T09:20:16.914Z,0.36
2023-01-21T09:21:16.916Z,0.33
2023-01-21T09:22:16.917Z,0.34
2023-01-21T09:23:16.879Z,0.41
2023-01-21T09:24:16.871Z,0.57
2023-01-21T09:25:17.121Z,0.51
2023-01-21T09:26:16.848Z,0.71
2023-01-21T09:27:16.845Z,0.78
2023-01-21T09:28:16.831Z,0.75
2023-01-21T09:29:16.812Z,0.92
2023-01-21T09:30:16.800Z,0.97
2023-01-21T09:31:16.867Z,0.89
2023-01-21T09:32:16.801Z,1.01
2023-01-21T09:33:16.751Z,1.06
2023-01-21T09:34:16.747Z,1.15
2023-01-21T09:35:17.059Z,1.06
2023-01-21T09:36:16.720Z,1.15
2023-01-21T09:37:16.721Z,1.08
2023-01-21T09:38:16.715Z,1.08
2023-01-21T09:39:16.702Z,1.25
2023-01-21T09:40:16.694Z,1.24
2023-01-21T09:41:16.722Z,1.18
2023-01-21T09:42:16.669Z,1.21
2023-01-21T09:43:16.641Z,1.16
2023-01-21T09:44:16.644Z,1.14
2023-01-21T09:45:16.968Z,1.24
2023-01-21T09:46:16.688Z,1.22
2023-01-21T09:47:16.608Z,1.28
2023-01-21T09:48:16.615Z,1.28
2023-01-21T09:49:16.572Z,1.26
2023-01-21T09:50:16.606Z,1.37
2023-01-21T09:51:16.629Z,1.33
2023-01-21T09:52:16.617Z,1.37
2023-01-21T09:53:16.542Z,1.37
2023-01-21T09:54:16.528Z,1.34
2023-01-21T09:55:16.717Z,1.40
2023-01-21T09:56:16.504Z,1.44
2023-01-21T09:57:16.482Z,1.51
2023-01-21T09:58:16.507Z,1.40
2023-01-21T09:59:16.458Z,1.43
2023-01-21T10:00:16.457Z,1.50
2023-01-21T10:01:16.573Z,1.36
2023-01-21T10:02:16.436Z,1.51
2023-01-21T10:03:16.429Z,1.50
2023-01-21T10:04:16.500Z,1.42
2023-01-21T10:05:16.687Z,1.44
2023-01-21T10:06:16.399Z,1.43
2023-01-21T10:07:16.384Z,1.54
2023-01-21T10:08:16.382Z,1.54
2023-01-21T10:09:16.360Z,1.52
2023-01-21T10:10:16.359Z,1.50
2023-01-21T10:11:16.325Z,1.47
2023-01-21T10:12:16.324Z,1.47
2023-01-21T10:13:16.313Z,1.60
2023-01-21T10:14:16.295Z,1.61
2023-01-21T10:15:16.497Z,1.73
2023-01-21T10:16:16.383Z,1.58
2023-01-21T10:17:16.261Z,1.80
2023-01-21T10:18:16.271Z,1.83
2023-01-21T10:19:16.239Z,1.82
2023-01-21T10:20:16.361Z,1.90
2023-01-21T10:21:16.234Z,1.93
2023-01-21T10:22:16.218Z,1.94
2023-01-21T10:23:16.401Z,1.85
2023-01-21T10:24:16.195Z,1.99
2023-01-21T10:25:16.482Z,1.91
2023-01-21T10:26:16.163Z,2.01
2023-01-21T10:27:16.151Z,2.04
2023-01-21T10:28:16.151Z,1.98
2023-01-21T10:29:16.127Z,2.15
2023-01-21T10:30:16.123Z,2.08
2023-01-21T10:31:16.296Z,2.08
2023-01-21T10:32:16.117Z,2.15
2023-01-21T10:33:16.092Z,2.13
2023-01-21T10:34:16.082Z,2.02
2023-01-21T10:35:16.401Z,2.09
2023-01-21T10:36:16.071Z,2.01
2023-01-21T10:37:16.032Z,1.97
2023-01-21T10:38:16.054Z,1.94
2023-01-21T10:39:16.013Z,2.06
2023-01-21T10:40:16.017Z,2.04
2023-01-21T10:41:15.988Z,1.97
2023-01-21T10:42:15.983Z,1.99
2023-01-21T10:43:15.992Z,2.06
2023-01-21T10:44:15.959Z,2.01
2023-01-21T10:45:16.245Z,2.16
2023-01-21T10:46:16.071Z,2.09
2023-01-21T10:47:15.933Z,2.06
2023-01-21T10:48:15.933Z,2.06
2023-01-21T10:49:15.909Z,2.08
2023-01-21T10:50:15.918Z,2.17
2023-01-21T10:51:16.034Z,2.12
2023-01-21T10:52:15.891Z,2.19
2023-01-21T10:53:15.865Z,2.16
2023-01-21T10:54:15.858Z,2.16
2023-01-21T10:55:16.210Z,2.15
2023-01-21T10:56:15.828Z,2.19
2023-01-21T10:57:15.813Z,2.09
2023-01-21T10:58:15.832Z,2.15
2023-01-21T10:59:15.798Z,2.06
2023-01-21T11:00:15.792Z,2.13
2023-01-21T11:01:15.833Z,2.10
2023-01-21T11:02:15.859Z,2.02
2023-01-21T11:03:15.766Z,1.98
2023-01-21T11:04:15.732Z,2.12
2023-01-21T11:05:16.024Z,2.01
2023-01-21T11:06:15.711Z,2.04
2023-01-21T11:07:15.696Z,2.15
2023-01-21T11:08:15.725Z,2.08
2023-01-21T11:09:15.683Z,2.20
2023-01-21T11:10:15.666Z,2.30
2023-01-21T11:11:15.656Z,2.26
2023-01-21T11:12:16.190Z,2.28
2023-01-21T11:13:15.626Z,2.37
2023-01-21T11:14:15.633Z,2.40
2023-01-21T11:15:16.137Z,2.40
2023-01-21T11:16:15.617Z,2.34
2023-01-21T11:17:15.596Z,2.34
2023-01-21T11:18:15.579Z,2.48
2023-01-21T11:19:15.597Z,2.20
2023-01-21T11:20:15.553Z,2.37
2023-01-21T11:21:15.541Z,2.40
2023-01-21T11:22:15.545Z,2.44
2023-01-21T11:23:15.527Z,2.53
2023-01-21T11:24:15.550Z,2.48
2023-01-21T11:25:15.968Z,2.55
2023-01-21T11:26:15.487Z,2.49
2023-01-21T11:27:15.469Z,2.33
2023-01-21T11:28:15.465Z,2.41
2023-01-21T11:29:15.458Z,2.28
2023-01-21T11:30:37.121Z,2.30
2023-01-21T11:31:16.603Z,2.34
2023-01-21T11:32:15.598Z,2.23
2023-01-21T11:33:15.413Z,2.19
2023-01-21T11:34:15.425Z,2.28
2023-01-21T11:35:15.394Z,2.34
2023-01-21T11:36:15.384Z,2.17
2023-01-21T11:37:15.444Z,2.34
2023-01-21T11:38:15.369Z,2.19
2023-01-21T11:39:15.346Z,2.13
2023-01-21T11:40:16.524Z,2.15
2023-01-21T11:41:15.317Z,2.19
2023-01-21T11:42:15.304Z,2.16
2023-01-21T11:43:15.301Z,2.31
2023-01-21T11:44:15.317Z,2.17
2023-01-21T11:45:15.692Z,2.28
2023-01-21T11:46:15.349Z,2.12
2023-01-21T11:47:15.244Z,2.15
2023-01-21T11:48:15.251Z,2.10
2023-01-21T11:49:15.248Z,2.09
2023-01-21T11:50:15.517Z,2.12
2023-01-21T11:51:15.260Z,2.10
2023-01-21T11:52:15.192Z,2.09
2023-01-21T11:53:15.197Z,2.08
2023-01-21T11:54:15.170Z,2.13
2023-01-21T11:55:15.174Z,2.15
2023-01-21T11:56:15.204Z,2.17
2023-01-21T11:57:15.132Z,2.13
2023-01-21T11:58:15.141Z,2.10
2023-01-21T11:59:15.110Z,2.13
2023-01-21T12:00:15.315Z,2.08
2023-01-21T12:01:15.099Z,2.23
2023-01-21T12:02:15.079Z,2.20
2023-01-21T12:03:15.065Z,2.10
2023-01-21T12:04:15.075Z,2.19
2023-01-21T12:05:15.053Z,2.12
2023-01-21T12:06:15.061Z,2.12
2023-01-21T12:07:15.025Z,2.08
2023-01-21T12:08:15.031Z,2.09
2023-01-21T12:09:15.005Z,2.13
2023-01-21T12:10:15.266Z,2.15
2023-01-21T12:11:14.975Z,2.17
2023-01-21T12:12:15.022Z,2.15
2023-01-21T12:13:14.965Z,2.31
2023-01-21T12:14:14.952Z,2.19
2023-01-21T12:15:14.941Z,2.27
2023-01-21T12:16:14.988Z,2.26
2023-01-21T12:17:14.913Z,2.16
2023-01-21T12:18:14.910Z,2.27
2023-01-21T12:19:14.895Z,2.30
2023-01-21T12:20:15.332Z,2.27
2023-01-21T12:21:14.862Z,2.27
2023-01-21T12:22:14.869Z,2.23
2023-01-21T12:23:14.851Z,2.28
2023-01-21T12:24:14.846Z,2.35
2023-01-21T12:25:14.822Z,2.33
2023-01-21T12:26:14.826Z,2.38
2023-01-21T12:27:14.810Z,2.38
2023-01-21T12:28:14.809Z,2.35
2023-01-21T12:29:14.775Z,2.38
2023-01-21T12:30:14.842Z,2.33
2023-01-21T12:31:14.890Z,2.46
2023-01-21T12:32:14.743Z,2.44
2023-01-21T12:33:14.740Z,2.41
2023-01-21T12:34:14.733Z,2.35
2023-01-21T12:35:15.033Z,2.38
2023-01-21T12:36:14.709Z,2.44
2023-01-21T12:37:14.695Z,2.46
2023-01-21T12:38:14.691Z,2.52
2023-01-21T12:39:14.671Z,2.44
2023-01-21T12:40:14.790Z,2.51
2023-01-21T12:41:14.633Z,2.45
2023-01-21T12:42:14.646Z,2.52
2023-01-21T12:43:14.613Z,2.48
2023-01-21T12:44:14.643Z,2.46
2023-01-21T12:45:14.629Z,2.44
2023-01-21T12:46:14.659Z,2.48
2023-01-21T12:47:14.569Z,2.52
2023-01-21T12:48:14.566Z,2.55
2023-01-21T12:49:14.559Z,2.55
2023-01-21T12:50:14.544Z,2.56
2023-01-21T12:51:14.620Z,2.63
2023-01-21T12:52:14.519Z,2.64
2023-01-21T12:53:14.515Z,2.53
2023-01-21T12:54:14.523Z,2.59
2023-01-21T12:55:14.546Z,2.56
2023-01-21T12:56:14.485Z,2.56
2023-01-21T12:57:14.455Z,2.53
2023-01-21T12:58:14.464Z,2.56
2023-01-21T12:59:14.449Z,2.59
2023-01-21T13:00:14.507Z,2.63
2023-01-21T13:01:14.528Z,2.70
2023-01-21T13:02:14.465Z,2.63
2023-01-21T13:03:14.388Z,2.73
2023-01-21T13:04:14.397Z,2.79
2023-01-21T13:05:14.498Z,2.79
2023-01-21T13:06:14.372Z,2.81
2023-01-21T13:07:14.348Z,2.85
2023-01-21T13:08:14.335Z,2.76
2023-01-21T13:09:14.350Z,2.76
2023-01-21T13:10:14.367Z,2.73
2023-01-21T13:11:14.311Z,2.77
2023-01-21T13:12:14.314Z,2.70
2023-01-21T13:13:14.278Z,2.70
2023-01-21T13:14:14.287Z,2.71
2023-01-21T13:15:14.289Z,2.79
2023-01-21T13:16:14.313Z,2.71
2023-01-21T13:17:14.250Z,2.69
2023-01-21T13:18:14.235Z,2.67
2023-01-21T13:19:14.213Z,2.70
2023-01-21T13:20:14.209Z,2.67
2023-01-21T13:21:14.191Z,2.66
2023-01-21T13:22:14.175Z,2.64
2023-01-21T13:23:14.170Z,2.74
2023-01-21T13:24:14.238Z,2.66
2023-01-21T13:25:14.172Z,2.67
2023-01-21T13:26:14.177Z,2.73
2023-01-21T13:27:14.155Z,2.71
2023-01-21T13:28:14.125Z,2.69
2023-01-21T13:29:14.113Z,2.79
2023-01-21T13:30:14.284Z,2.79
2023-01-21T13:31:14.202Z,2.70
2023-01-21T13:32:14.209Z,2.66
2023-01-21T13:33:14.069Z,2.66
2023-01-21T13:34:14.041Z,2.59
2023-01-21T13:35:14.061Z,2.66
2023-01-21T13:36:14.029Z,2.64
2023-01-21T13:37:14.011Z,2.56
2023-01-21T13:38:13.995Z,2.77
2023-01-21T13:39:13.999Z,2.74
2023-01-21T13:40:13.998Z,2.56
2023-01-21T13:41:13.979Z,2.56
2023-01-21T13:42:13.951Z,2.70
2023-01-21T13:43:13.958Z,2.67
2023-01-21T13:44:13.927Z,2.63
2023-01-21T13:45:13.974Z,2.58
2023-01-21T13:46:14.042Z,2.63
2023-01-21T13:47:13.918Z,2.69
2023-01-21T13:48:13.919Z,2.69
2023-01-21T13:49:13.888Z,2.73
2023-01-21T13:50:13.882Z,2.63
2023-01-21T13:51:13.957Z,2.63
2023-01-21T13:52:13.857Z,2.74
2023-01-21T13:53:13.844Z,2.77
2023-01-21T13:54:13.827Z,2.59
2023-01-21T13:55:13.829Z,2.70
2023-01-21T13:56:13.828Z,2.74
2023-01-21T13:57:13.797Z,2.74
2023-01-21T13:58:13.771Z,2.52
2023-01-21T13:59:13.760Z,2.58
2023-01-21T14:00:13.750Z,2.56
2023-01-21T14:01:13.871Z,2.53
2023-01-21T14:02:13.847Z,2.64
2023-01-21T14:03:13.723Z,2.49
2023-01-21T14:04:13.742Z,2.52
2023-01-21T14:05:13.694Z,2.45
2023-01-21T14:06:13.693Z,2.55
2023-01-21T14:07:13.688Z,2.41
2023-01-21T14:08:13.657Z,2.58
2023-01-21T14:09:13.662Z,2.48
2023-01-21T14:10:13.649Z,2.55
2023-01-21T14:11:13.643Z,2.49
2023-01-21T14:12:13.614Z,2.49
2023-01-21T14:13:13.608Z,2.41
2023-01-21T14:14:13.602Z,2.55
2023-01-21T14:15:13.595Z,2.49
2023-01-21T14:16:13.636Z,2.51
2023-01-21T14:17:13.562Z,2.51
2023-01-21T14:18:13.542Z,2.45
2023-01-21T14:19:13.535Z,2.61
2023-01-21T14:20:13.547Z,2.51
2023-01-21T14:21:13.519Z,2.51
2023-01-21T14:22:13.527Z,2.51
2023-01-21T14:23:13.505Z,2.51
2023-01-21T14:24:13.490Z,2.59
2023-01-21T14:25:13.502Z,2.48
2023-01-21T14:26:13.456Z,2.51
2023-01-21T14:27:15.215Z,2.55
2023-01-21T14:28:13.433Z,2.51
2023-01-21T14:29:13.424Z,2.53
2023-01-21T14:30:13.428Z,2.58
2023-01-21T14:31:13.610Z,2.37
2023-01-21T14:32:14.019Z,2.34
2023-01-21T14:33:13.382Z,2.44
2023-01-21T14:34:13.382Z,2.45
2023-01-21T14:35:13.368Z,2.35
2023-01-21T14:36:13.360Z,2.40
2023-01-21T14:37:13.353Z,2.45
2023-01-21T14:38:13.318Z,2.35
2023-01-21T14:39:13.325Z,2.51
2023-01-21T14:40:13.296Z,2.49
2023-01-21T14:41:13.303Z,2.52
2023-01-21T14:42:13.287Z,2.49
2023-01-21T14:43:13.295Z,2.34
2023-01-21T14:44:13.250Z,2.41
2023-01-21T14:45:13.245Z,2.40
2023-01-21T14:46:13.367Z,2.40
2023-01-21T14:47:13.235Z,2.31
2023-01-21T14:48:13.221Z,2.34
2023-01-21T14:49:13.207Z,2.37
2023-01-21T14:50:13.183Z,2.35
2023-01-21T14:51:13.297Z,2.35
2023-01-21T14:52:13.187Z,2.41
2023-01-21T14:53:13.174Z,2.30
2023-01-21T14:54:13.164Z,2.35
2023-01-21T14:55:13.139Z,2.34
2023-01-21T14:56:15.869Z,2.38
2023-01-21T14:57:18.724Z,2.31
2023-01-21T14:58:14.309Z,2.17
2023-01-21T14:59:13.101Z,2.30
2023-01-21T15:00:13.103Z,2.34
2023-01-21T15:01:13.136Z,2.26
2023-01-21T15:02:13.139Z,2.38
2023-01-21T15:03:13.065Z,2.30
2023-01-21T15:04:13.026Z,2.35
2023-01-21T15:05:13.036Z,2.31
2023-01-21T15:06:13.016Z,2.38
2023-01-21T15:07:13.010Z,2.40
2023-01-21T15:08:13.034Z,2.41
2023-01-21T15:09:12.975Z,2.46
2023-01-21T15:10:12.958Z,2.35
2023-01-21T15:11:13.067Z,2.37
2023-01-21T15:12:12.950Z,2.44
2023-01-21T15:13:12.948Z,2.35
2023-01-21T15:14:12.920Z,2.38
2023-01-21T15:15:12.923Z,2.46
2023-01-21T15:16:12.961Z,2.37
2023-01-21T15:17:12.883Z,2.44
2023-01-21T15:18:12.881Z,2.46
2023-01-21T15:19:12.890Z,2.35
2023-01-21T15:20:12.858Z,2.40
2023-01-21T15:21:12.853Z,2.41
2023-01-21T15:22:12.840Z,2.33
2023-01-21T15:23:12.821Z,2.38
2023-01-21T15:24:12.854Z,2.26
2023-01-21T15:25:12.806Z,2.35
2023-01-21T15:26:12.820Z,2.34
2023-01-21T15:27:12.771Z,2.38
2023-01-21T15:28:12.772Z,2.31
2023-01-21T15:29:12.776Z,2.34
2023-01-21T15:30:12.748Z,2.35
2023-01-21T15:31:12.881Z,2.37
2023-01-21T15:32:14.384Z,2.40
2023-01-21T15:33:12.729Z,2.31
2023-01-21T15:34:12.716Z,2.31
2023-01-21T15:35:12.720Z,2.28
2023-01-21T15:36:12.679Z,2.34
2023-01-21T15:37:12.672Z,2.34
2023-01-21T15:38:12.647Z,2.30
2023-01-21T15:39:12.664Z,2.35
2023-01-21T15:40:12.659Z,2.33
2023-01-21T15:41:12.633Z,2.41
2023-01-21T15:42:12.621Z,2.27
2023-01-21T15:43:12.606Z,2.27
2023-01-21T15:44:12.582Z,2.34
2023-01-21T15:45:12.592Z,2.22
2023-01-21T15:46:12.641Z,2.20
2023-01-21T15:47:12.546Z,2.10
2023-01-21T15:48:12.536Z,2.09
2023-01-21T15:49:12.532Z,2.15
2023-01-21T15:50:12.541Z,2.06
2023-01-21T15:51:12.604Z,2.08
2023-01-21T15:52:12.482Z,2.08
2023-01-21T15:53:12.490Z,1.98
2023-01-21T15:54:12.462Z,2.04
2023-01-21T15:55:12.469Z,1.93
2023-01-21T15:56:12.480Z,1.98
2023-01-21T15:57:12.453Z,1.91
2023-01-21T15:58:12.443Z,1.99
2023-01-21T15:59:12.412Z,1.89
2023-01-21T16:00:12.398Z,1.91
2023-01-21T16:01:12.433Z,1.94
2023-01-21T16:02:12.471Z,1.82
2023-01-21T16:03:12.383Z,1.80
2023-01-21T16:04:12.368Z,1.83
2023-01-21T16:05:12.360Z,1.90
2023-01-21T16:06:12.342Z,1.93
2023-01-21T16:07:12.343Z,1.85
2023-01-21T16:08:12.398Z,1.85
2023-01-21T16:09:12.396Z,1.94
2023-01-21T16:10:12.296Z,1.91
2023-01-21T16:11:12.299Z,1.91
2023-01-21T16:12:12.312Z,1.93
2023-01-21T16:13:12.255Z,2.02
2023-01-21T16:14:13.842Z,1.90
2023-01-21T16:15:12.241Z,2.02
2023-01-21T16:16:12.317Z,1.90
2023-01-21T16:17:12.230Z,2.06
2023-01-21T16:18:12.194Z,1.97
2023-01-21T16:19:12.192Z,1.99
2023-01-21T16:20:12.185Z,2.06
2023-01-21T16:21:12.178Z,1.98
2023-01-21T16:22:12.164Z,1.98
2023-01-21T16:23:12.142Z,2.01
2023-01-21T16:24:12.126Z,1.97
2023-01-21T16:25:12.124Z,2.01
2023-01-21T16:26:12.111Z,2.01
2023-01-21T16:27:12.110Z,1.94
2023-01-21T16:28:12.100Z,1.94
2023-01-21T16:29:12.077Z,1.94
2023-01-21T16:30:12.078Z,1.93
2023-01-21T16:31:12.206Z,2.02
2023-01-21T16:32:12.066Z,2.09
2023-01-21T16:33:12.093Z,1.91
2023-01-21T16:34:12.014Z,2.06
2023-01-21T16:35:12.019Z,1.87
2023-01-21T16:36:12.005Z,1.89
2023-01-21T16:37:12.000Z,1.97
2023-01-21T16:38:11.981Z,2.04
2023-01-21T16:39:11.976Z,2.02
2023-01-21T16:40:11.969Z,2.06
2023-01-21T16:41:11.958Z,1.91
2023-01-21T16:42:11.942Z,2.02
2023-01-21T16:43:11.935Z,2.02
2023-01-21T16:44:11.936Z,2.04
2023-01-21T16:45:11.891Z,1.97
2023-01-21T16:46:11.974Z,2.02
2023-01-21T16:47:11.899Z,1.94
2023-01-21T16:48:11.856Z,1.94
2023-01-21T16:49:11.849Z,1.93
2023-01-21T16:50:11.833Z,1.97
2023-01-21T16:51:11.887Z,2.09
2023-01-21T16:52:11.824Z,2.02
2023-01-21T16:53:11.803Z,1.97
2023-01-21T16:54:11.796Z,2.06
2023-01-21T16:55:13.030Z,2.04
2023-01-21T16:56:11.766Z,1.97
2023-01-21T16:57:11.771Z,2.06
2023-01-21T16:58:11.743Z,2.06
2023-01-21T16:59:11.751Z,2.02
2023-01-21T17:00:11.761Z,2.08
2023-01-21T17:01:11.768Z,2.08
2023-01-21T17:02:11.749Z,1.99
2023-01-21T17:03:11.691Z,2.10
2023-01-21T17:04:11.680Z,2.01
2023-01-21T17:05:11.700Z,2.02
2023-01-21T17:06:11.654Z,1.97
2023-01-21T17:07:11.663Z,2.02
2023-01-21T17:08:11.685Z,2.04
2023-01-21T17:09:11.626Z,1.93
2023-01-21T17:10:11.608Z,2.01
2023-01-21T17:11:11.625Z,1.98
2023-01-21T17:12:11.603Z,1.98
2023-01-21T17:13:11.614Z,2.09
2023-01-21T17:14:11.562Z,2.06
2023-01-21T17:15:11.562Z,1.97
2023-01-21T17:16:11.594Z,2.02
2023-01-21T17:17:11.551Z,1.97
2023-01-21T17:18:11.539Z,1.98
2023-01-21T17:19:11.512Z,1.90
2023-01-21T17:20:11.504Z,1.97
2023-01-21T17:21:11.532Z,1.99
2023-01-21T17:22:11.489Z,1.90
2023-01-21T17:23:11.497Z,1.99
2023-01-21T17:24:11.464Z,2.01
2023-01-21T17:25:11.443Z,1.87
2023-01-21T17:26:11.446Z,1.94
2023-01-21T17:27:11.441Z,1.94
2023-01-21T17:28:11.432Z,1.93
2023-01-21T17:29:11.417Z,1.94
2023-01-21T17:30:11.397Z,1.89
2023-01-21T17:31:11.527Z,1.94
2023-01-21T17:32:11.401Z,1.98
2023-01-21T17:33:11.380Z,1.93
2023-01-21T17:34:11.364Z,1.87
2023-01-21T17:35:11.344Z,1.83
2023-01-21T17:36:11.348Z,1.93
2023-01-21T17:37:11.303Z,1.79
2023-01-21T17:38:11.324Z,1.89
2023-01-21T17:39:11.300Z,1.85
2023-01-21T17:40:11.298Z,1.90
2023-01-21T17:41:11.272Z,1.76
2023-01-21T17:42:11.251Z,1.79
2023-01-21T17:43:11.265Z,1.75
2023-01-21T17:44:11.243Z,1.82
2023-01-21T17:45:11.216Z,1.72
2023-01-21T17:46:11.303Z,1.79
2023-01-21T17:47:11.200Z,1.75
2023-01-21T17:48:14.437Z,1.80
2023-01-21T17:49:11.184Z,1.65
2023-01-21T17:50:11.160Z,1.73
2023-01-21T17:51:11.244Z,1.65
2023-01-21T17:52:11.148Z,1.71
2023-01-21T17:53:11.149Z,1.76
2023-01-21T17:54:11.116Z,1.73
2023-01-21T17:55:11.101Z,1.60
2023-01-21T17:56:11.091Z,1.68
2023-01-21T17:57:11.102Z,1.72
2023-01-21T17:58:11.086Z,1.69
2023-01-21T17:59:11.055Z,1.72
2023-01-21T18:00:11.049Z,1.64
2023-01-21T18:01:11.122Z,1.71
2023-01-21T18:02:11.053Z,1.71
2023-01-21T18:03:11.093Z,1.68
2023-01-21T18:04:11.047Z,1.71
2023-01-21T18:05:11.009Z,1.75
2023-01-21T18:06:10.981Z,1.82
2023-01-21T18:07:10.983Z,1.79
2023-01-21T18:08:10.975Z,1.73
2023-01-21T18:09:10.944Z,1.79
2023-01-21T18:10:10.953Z,1.69
2023-01-21T18:11:10.933Z,1.72
2023-01-21T18:12:10.916Z,1.72
2023-01-21T18:13:10.915Z,1.80
2023-01-21T18:14:10.895Z,1.83
2023-01-21T18:15:10.889Z,1.75
2023-01-21T18:16:10.960Z,1.79
2023-01-21T18:17:10.856Z,1.79
2023-01-21T18:18:10.878Z,1.80
2023-01-21T18:19:10.828Z,1.76
2023-01-21T18:20:10.859Z,1.94
2023-01-21T18:21:10.823Z,1.76
2023-01-21T18:22:10.803Z,1.80
2023-01-21T18:23:10.819Z,1.75
2023-01-21T18:24:10.859Z,1.68
2023-01-21T18:25:10.780Z,1.80
2023-01-21T18:26:10.777Z,1.73
2023-01-21T18:27:10.741Z,1.69
2023-01-21T18:28:10.759Z,1.69
2023-01-21T18:29:10.720Z,1.83
2023-01-21T18:30:10.713Z,1.80
2023-01-21T18:31:10.946Z,1.72
2023-01-21T18:32:10.705Z,1.79
2023-01-21T18:33:10.692Z,1.62
2023-01-21T18:34:10.681Z,1.76
2023-01-21T18:35:10.653Z,1.68
2023-01-21T18:36:10.682Z,1.68
2023-01-21T18:37:10.646Z,1.64
2023-01-21T18:38:10.634Z,1.78
2023-01-21T18:39:10.632Z,1.71
2023-01-21T18:40:10.603Z,1.68
2023-01-21T18:41:10.583Z,1.80
2023-01-21T18:42:10.579Z,1.75
2023-01-21T18:43:10.577Z,1.76
2023-01-21T18:44:10.583Z,1.82
2023-01-21T18:45:10.542Z,1.73
2023-01-21T18:46:10.570Z,1.72
2023-01-21T18:47:10.515Z,1.71
2023-01-21T18:48:10.521Z,1.73
2023-01-21T18:49:10.528Z,1.78
2023-01-21T18:50:10.508Z,1.69
2023-01-21T18:51:10.530Z,1.71
2023-01-21T18:52:10.490Z,1.69
2023-01-21T18:53:10.450Z,1.73
2023-01-21T18:54:10.452Z,1.64
2023-01-21T18:55:10.433Z,1.62
2023-01-21T18:56:10.433Z,1.65
2023-01-21T18:57:10.409Z,1.71
2023-01-21T18:58:10.408Z,1.57
2023-01-21T18:59:10.396Z,1.58
2023-01-21T19:00:10.386Z,1.69
2023-01-21T19:01:22.012Z,1.64
2023-01-21T19:02:11.452Z,1.62
2023-01-21T19:03:10.372Z,1.71
2023-01-21T19:04:10.375Z,1.55
2023-01-21T19:05:10.329Z,1.71
2023-01-21T19:06:10.305Z,1.65
2023-01-21T19:07:10.290Z,1.69
2023-01-21T19:08:10.312Z,1.62
2023-01-21T19:09:12.489Z,1.64
2023-01-21T19:10:11.403Z,1.62
2023-01-21T19:11:10.255Z,1.68
2023-01-21T19:12:10.254Z,1.73
2023-01-21T19:13:10.280Z,1.69
2023-01-21T19:14:10.262Z,1.64
2023-01-21T19:15:10.215Z,1.58
2023-01-21T19:16:10.257Z,1.62
2023-01-21T19:17:10.187Z,1.64
2023-01-21T19:18:10.168Z,1.64
2023-01-21T19:19:10.179Z,1.65
2023-01-21T19:20:10.147Z,1.64
2023-01-21T19:21:10.146Z,1.62
2023-01-21T19:22:10.151Z,1.61
2023-01-21T19:23:10.123Z,1.71
2023-01-21T19:24:12.096Z,1.65
2023-01-21T19:25:10.088Z,1.58
2023-01-21T19:26:10.099Z,1.68
2023-01-21T19:27:10.069Z,1.64
2023-01-21T19:28:10.069Z,1.55
2023-01-21T19:29:10.066Z,1.57
2023-01-21T19:30:10.046Z,1.69
2023-01-21T19:31:10.214Z,1.64
2023-01-21T19:32:10.135Z,1.64
2023-01-21T19:33:10.024Z,1.64
2023-01-21T19:34:10.020Z,1.64
2023-01-21T19:35:09.992Z,1.61
2023-01-21T19:36:09.968Z,1.68
2023-01-21T19:37:09.958Z,1.68
2023-01-21T19:38:09.962Z,1.69
2023-01-21T19:39:09.958Z,1.61
2023-01-21T19:40:10.021Z,1.58
2023-01-21T19:41:09.913Z,1.62
2023-01-21T19:42:09.898Z,1.75
2023-01-21T19:43:09.900Z,1.61
2023-01-21T19:44:09.906Z,1.69
2023-01-21T19:45:09.874Z,1.61
2023-01-21T19:46:09.853Z,1.71
2023-01-21T19:47:09.837Z,1.58
2023-01-21T19:48:09.834Z,1.69
2023-01-21T19:49:10.330Z,1.68
2023-01-21T19:50:09.830Z,1.65
2023-01-21T19:51:09.881Z,1.61
2023-01-21T19:52:09.802Z,1.71
2023-01-21T19:53:09.803Z,1.65
2023-01-21T19:54:09.777Z,1.64
2023-01-21T19:55:09.762Z,1.72
2023-01-21T19:56:09.777Z,1.65
2023-01-21T19:57:09.731Z,1.72
2023-01-21T19:58:09.719Z,1.71
2023-01-21T19:59:09.714Z,1.62
2023-01-21T20:00:09.711Z,1.55
2023-01-21T20:01:09.705Z,1.69
2023-01-21T20:02:09.781Z,1.73
2023-01-21T20:03:09.658Z,1.65
2023-01-21T20:04:09.669Z,1.71
2023-01-21T20:05:09.635Z,1.72
2023-01-21T20:06:09.644Z,1.71
2023-01-21T20:07:09.613Z,1.71
2023-01-21T20:08:09.686Z,1.71
2023-01-21T20:09:10.686Z,1.71
2023-01-21T20:10:09.587Z,1.65
2023-01-21T20:11:09.565Z,1.65
2023-01-21T20:12:09.604Z,1.75
2023-01-21T20:13:09.546Z,1.79
2023-01-21T20:14:09.564Z,1.64
2023-01-21T20:15:09.528Z,1.71
2023-01-21T20:16:09.550Z,1.76
2023-01-21T20:17:09.508Z,1.65
2023-01-21T20:18:09.509Z,1.80
2023-01-21T20:19:09.495Z,1.76
2023-01-21T20:20:09.490Z,1.79
2023-01-21T20:21:09.462Z,1.73
2023-01-21T20:22:09.446Z,1.78
2023-01-21T20:23:09.433Z,1.75
2023-01-21T20:24:09.460Z,1.78
2023-01-21T20:25:09.411Z,1.75
2023-01-21T20:26:09.418Z,1.64
2023-01-21T20:27:10.798Z,1.68
2023-01-21T20:28:09.409Z,1.75
2023-01-21T20:29:09.364Z,1.78
2023-01-21T20:30:16.106Z,1.73
2023-01-21T20:31:10.455Z,1.75
2023-01-21T20:32:09.348Z,1.85
2023-01-21T20:33:09.319Z,1.72
2023-01-21T20:34:09.320Z,1.75
2023-01-21T20:35:09.325Z,1.79
2023-01-21T20:36:09.304Z,1.78
2023-01-21T20:37:09.290Z,1.76
2023-01-21T20:38:09.282Z,1.68
2023-01-21T20:39:09.269Z,1.78
2023-01-21T20:40:09.271Z,1.87
2023-01-21T20:41:09.242Z,1.78
2023-01-21T20:42:09.221Z,1.69
2023-01-21T20:43:09.220Z,1.76
2023-01-21T20:44:09.233Z,1.79
2023-01-21T20:45:09.202Z,1.87
2023-01-21T20:46:09.222Z,1.78
2023-01-21T20:47:09.191Z,1.83
2023-01-21T20:48:09.175Z,1.89
2023-01-21T20:49:09.141Z,1.87
2023-01-21T20:50:09.151Z,1.79
2023-01-21T20:51:09.183Z,1.89
2023-01-21T20:52:09.127Z,1.80
2023-01-21T20:53:09.111Z,1.85
2023-01-21T20:54:09.103Z,1.73
2023-01-21T20:55:09.095Z,1.76